Time;durP1;ratioP1;P1;durP2;ratioP2;P2;SDS_P1;SDS_P2;PMS_P1;PMS_P2;Temp;Humidity;BMP_temperature;BMP_pressure;BME280_temperature;BME280_humidity;BME280_pressure;Samples;Min_cycle;Max_cycle;Signal;HPM_P1;HPM_P2
2022/01/04 00:00:40;;;;;;;62.15;48.83;;;18.00;73.50;;;;;;5014743;27;90797;-65
2022/01/04 00:03:06;;;;;;;63.08;48.13;;;18.00;73.60;;;;;;5016587;27;89523;-66
2022/01/04 00:05:32;;;;;;;62.47;48.10;;;18.00;73.30;;;;;;5006105;27;90341;-64
2022/01/04 00:07:59;;;;;;;62.05;48.58;;;18.00;73.40;;;;;;5010509;27;89282;-64
2022/01/04 00:10:27;;;;;;;67.03;48.85;;;18.00;73.20;;;;;;5008855;27;90620;-64
2022/01/04 00:15:41;;;;;;;70.88;49.67;;;17.90;73.10;;;;;;5006502;27;91187;-66
2022/01/04 00:18:07;;;;;;;68.40;49.58;;;17.90;72.90;;;;;;5016613;27;91154;-66
2022/01/04 00:20:33;;;;;;;72.28;49.83;;;18.00;73.00;;;;;;5005171;27;90845;-66
2022/01/04 00:22:58;;;;;;;70.65;49.75;;;17.90;72.60;;;;;;5012979;27;90116;-67
2022/01/04 00:25:24;;;;;;;65.30;49.33;;;17.90;72.70;;;;;;5010693;27;91039;-66
2022/01/04 00:27:50;;;;;;;66.72;49.80;;;17.90;72.80;;;;;;5002455;27;91474;-66
2022/01/04 00:30:15;;;;;;;68.47;49.40;;;17.90;72.50;;;;;;4988834;28;91967;-66
2022/01/04 00:32:41;;;;;;;66.45;49.38;;;17.90;72.60;;;;;;4990937;28;93579;-66
2022/01/04 00:35:07;;;;;;;69.80;49.25;;;17.80;72.80;;;;;;4994110;28;91911;-67
2022/01/04 00:37:33;;;;;;;65.88;49.28;;;17.90;72.80;;;;;;4994755;28;90216;-66
2022/01/04 00:39:59;;;;;;;64.75;49.40;;;17.80;72.80;;;;;;4994281;28;90599;-66
2022/01/04 00:42:25;;;;;;;64.57;49.03;;;17.80;72.80;;;;;;4995573;28;89861;-66
2022/01/04 00:44:50;;;;;;;68.10;49.17;;;17.80;72.60;;;;;;4996453;28;90449;-67
2022/01/04 00:47:19;;;;;;;65.32;49.13;;;17.80;72.50;;;;;;4999378;28;90326;-67
2022/01/04 00:49:45;;;;;;;64.15;49.13;;;17.80;72.50;;;;;;4998099;28;90493;-67
2022/01/04 00:52:16;;;;;;;64.45;49.63;;;17.80;72.50;;;;;;4996744;28;89598;-66
2022/01/04 00:54:46;;;;;;;66.45;48.70;;;17.80;72.40;;;;;;375264;28;10113922;-67
2022/01/04 00:57:12;;;;;;;65.97;49.22;;;17.70;72.30;;;;;;4993352;28;89477;-66
2022/01/04 00:59:38;;;;;;;64.20;49.08;;;17.70;72.30;;;;;;4993776;28;89982;-67
2022/01/04 01:02:04;;;;;;;63.88;48.92;;;17.80;72.20;;;;;;4987896;28;90170;-66
2022/01/04 01:04:30;;;;;;;63.63;48.75;;;17.70;72.10;;;;;;4998802;28;96826;-67
2022/01/04 01:06:56;;;;;;;64.88;49.00;;;17.70;72.10;;;;;;4991126;28;90639;-66
2022/01/04 01:09:24;;;;;;;64.90;48.90;;;17.70;72.30;;;;;;4990201;28;90780;-66
2022/01/04 01:11:50;;;;;;;61.50;48.75;;;17.70;72.40;;;;;;4992951;28;89998;-66
2022/01/04 01:14:16;;;;;;;63.03;48.85;;;17.70;72.20;;;;;;4991618;28;90634;-66
2022/01/04 01:16:41;;;;;;;63.50;48.90;;;17.70;72.10;;;;;;4990648;28;90034;-66
2022/01/04 01:19:07;;;;;;;63.92;49.03;;;17.70;71.60;;;;;;4976248;28;92622;-66
2022/01/04 01:21:33;;;;;;;66.80;48.88;;;17.70;72.00;;;;;;4997349;28;89774;-66
2022/01/04 01:23:58;;;;;;;64.40;48.88;;;17.70;71.80;;;;;;4992229;28;90694;-67
2022/01/04 01:26:24;;;;;;;63.85;48.83;;;17.70;71.90;;;;;;4991605;28;94991;-66
2022/01/04 01:28:50;;;;;;;64.13;48.85;;;17.60;71.80;;;;;;5006110;27;91473;-66
2022/01/04 01:31:15;;;;;;;63.25;48.60;;;17.70;71.90;;;;;;5016085;27;90152;-67
2022/01/04 01:33:41;;;;;;;63.63;48.78;;;17.60;71.70;;;;;;5014911;27;90713;-67
2022/01/04 01:36:06;;;;;;;63.10;48.92;;;17.70;71.70;;;;;;5013226;27;90474;-67
2022/01/04 01:38:32;;;;;;;61.33;48.47;;;17.70;71.80;;;;;;5010752;27;95004;-66
2022/01/04 01:40:58;;;;;;;62.05;48.58;;;17.60;72.60;;;;;;5013007;27;92141;-66
2022/01/04 01:43:26;;;;;;;63.67;48.63;;;17.60;71.70;;;;;;5012515;27;90269;-66
2022/01/04 01:45:53;;;;;;;61.65;48.45;;;17.70;71.70;;;;;;5018779;27;89263;-66
2022/01/04 01:48:19;;;;;;;63.45;48.60;;;17.60;71.70;;;;;;5015524;27;90188;-66
2022/01/04 01:50:44;;;;;;;65.25;48.78;;;17.60;71.40;;;;;;5014942;27;91331;-67
2022/01/04 01:53:10;;;;;;;62.58;48.80;;;17.60;71.50;;;;;;5009406;27;91872;-67
2022/01/04 01:55:36;;;;;;;61.35;48.67;;;17.60;71.60;;;;;;5008667;27;90532;-66
2022/01/04 01:58:01;;;;;;;63.65;48.95;;;17.60;71.70;;;;;;5007785;27;90016;-67
2022/01/04 02:00:29;;;;;;;61.92;48.83;;;17.50;71.50;;;;;;5006062;27;91453;-66
2022/01/04 02:02:57;;;;;;;60.88;48.42;;;17.50;71.50;;;;;;5018162;27;91003;-66
2022/01/04 02:05:23;;;;;;;61.67;48.65;;;17.50;71.50;;;;;;5007360;27;89692;-67
2022/01/04 02:07:48;;;;;;;62.30;48.40;;;17.50;71.60;;;;;;5008428;27;89943;-66
2022/01/04 02:10:14;;;;;;;61.10;48.45;;;17.50;71.50;;;;;;4995686;27;90345;-67
2022/01/04 02:12:44;;;;;;;62.50;48.50;;;17.50;71.40;;;;;;5009798;27;89584;-67
2022/01/04 02:15:11;;;;;;;61.20;48.42;;;17.50;71.40;;;;;;5007460;27;92775;-66
2022/01/04 02:17:37;;;;;;;62.47;48.47;;;17.50;71.50;;;;;;5011883;27;91240;-66
2022/01/04 02:20:05;;;;;;;60.83;48.45;;;17.50;71.30;;;;;;5011247;27;89564;-66
2022/01/04 02:22:32;;;;;;;63.25;48.50;;;17.50;71.40;;;;;;5011645;27;90861;-66
2022/01/04 02:24:58;;;;;;;62.15;48.38;;;17.50;71.50;;;;;;5009939;27;95985;-66
2022/01/04 02:27:24;;;;;;;62.22;48.65;;;17.50;71.40;;;;;;5011805;27;89861;-67
2022/01/04 02:29:50;;;;;;;61.38;48.70;;;17.50;71.20;;;;;;5011866;27;95038;-66
2022/01/04 02:32:15;;;;;;;61.25;48.42;;;17.50;71.50;;;;;;5015857;27;90702;-66
2022/01/04 02:34:50;;;;;;;61.95;48.60;;;17.50;71.50;;;;;;5014539;27;91015;-66
2022/01/04 02:37:23;;;;;;;61.22;48.25;;;17.50;71.40;;;;;;5011554;27;90073;-66
2022/01/04 02:39:50;;;;;;;60.22;48.38;;;17.50;71.30;;;;;;5009572;27;90282;-66
2022/01/04 02:42:16;;;;;;;62.05;48.47;;;17.50;71.20;;;;;;5010096;27;91975;-66
2022/01/04 02:44:42;;;;;;;61.78;48.20;;;17.50;71.20;;;;;;5017633;27;90550;-66
2022/01/04 02:47:08;;;;;;;61.03;48.28;;;17.50;71.30;;;;;;5015504;27;90502;-66
2022/01/04 02:49:34;;;;;;;60.92;48.40;;;17.50;71.20;;;;;;5015352;27;90108;-66
2022/01/04 02:51:59;;;;;;;62.22;48.25;;;17.50;71.20;;;;;;5013216;27;90414;-66
2022/01/04 02:54:25;;;;;;;60.25;48.25;;;17.50;71.20;;;;;;5011866;27;90195;-67
2022/01/04 02:56:50;;;;;;;61.58;48.13;;;17.50;71.00;;;;;;5013705;27;90573;-66
2022/01/04 02:59:16;;;;;;;60.65;48.20;;;17.40;71.00;;;;;;5011454;27;88769;-66
2022/01/04 03:01:42;;;;;;;63.15;48.60;;;17.50;71.00;;;;;;5013738;27;90481;-67
2022/01/04 03:04:09;;;;;;;60.33;48.10;;;17.40;71.10;;;;;;5014568;27;90481;-66
2022/01/04 03:06:35;;;;;;;61.42;48.33;;;17.40;71.00;;;;;;5005085;27;91241;-66
2022/01/04 03:09:03;;;;;;;61.35;48.45;;;17.40;71.60;;;;;;5010283;27;89965;-66
2022/01/04 03:11:28;;;;;;;60.45;48.15;;;17.40;70.90;;;;;;5014208;27;90439;-66
2022/01/04 03:13:54;;;;;;;60.70;47.92;;;17.40;70.90;;;;;;5015538;27;92371;-67
2022/01/04 03:16:20;;;;;;;59.88;48.03;;;17.40;71.00;;;;;;5009452;27;90604;-67
2022/01/04 03:19:03;;;;;;;60.10;48.28;;;17.40;70.90;;;;;;4995829;27;89695;-66
2022/01/04 03:21:30;;;;;;;60.00;48.00;;;17.40;70.90;;;;;;5009478;27;89661;-66
2022/01/04 03:23:56;;;;;;;61.22;48.35;;;17.40;70.90;;;;;;5017974;27;91020;-66
2022/01/04 03:26:22;;;;;;;60.38;48.25;;;17.40;70.90;;;;;;5012760;27;90497;-66
2022/01/04 03:28:47;;;;;;;60.72;48.22;;;17.40;70.90;;;;;;5009670;27;91114;-66
2022/01/04 03:31:14;;;;;;;61.00;48.38;;;17.40;70.70;;;;;;5010104;27;92220;-66
2022/01/04 03:33:40;;;;;;;60.80;48.15;;;17.40;71.60;;;;;;5009788;27;91467;-67
2022/01/04 03:36:06;;;;;;;60.97;48.15;;;17.40;70.80;;;;;;5014886;27;90176;-67
2022/01/04 03:38:31;;;;;;;61.67;48.28;;;17.40;70.80;;;;;;5011669;27;90116;-66
2022/01/04 03:40:57;;;;;;;60.70;48.28;;;17.40;70.70;;;;;;4992648;27;90535;-66
2022/01/04 03:43:23;;;;;;;60.65;48.33;;;17.40;70.80;;;;;;5009941;27;90497;-66
2022/01/04 03:45:49;;;;;;;60.42;48.05;;;17.40;70.60;;;;;;5018181;27;90271;-66
2022/01/04 03:48:15;;;;;;;60.70;48.00;;;17.40;70.70;;;;;;5017401;27;89943;-66
2022/01/04 03:50:41;;;;;;;61.65;48.30;;;17.40;70.60;;;;;;5014666;27;90938;-66
2022/01/04 03:53:07;;;;;;;60.13;48.08;;;17.40;70.60;;;;;;5014524;27;90465;-66
2022/01/04 03:55:33;;;;;;;61.33;48.25;;;17.30;70.50;;;;;;5019497;27;92121;-66
2022/01/04 03:57:58;;;;;;;60.78;48.25;;;17.40;70.60;;;;;;5014819;27;95502;-66
2022/01/04 04:00:24;;;;;;;60.33;48.05;;;17.40;70.60;;;;;;5014537;27;90211;-66
2022/01/04 04:02:50;;;;;;;60.25;48.17;;;17.40;70.60;;;;;;5017222;27;89944;-66
2022/01/04 04:05:15;;;;;;;60.00;47.90;;;17.30;70.50;;;;;;5012271;27;93174;-68
2022/01/04 04:07:42;;;;;;;60.15;47.95;;;17.30;70.40;;;;;;5020071;27;90440;-66
2022/01/04 04:10:08;;;;;;;60.60;48.22;;;17.30;70.50;;;;;;5013892;27;90879;-67
2022/01/04 04:12:34;;;;;;;60.00;48.05;;;17.30;70.30;;;;;;5009631;27;89395;-67
2022/01/04 04:15:03;;;;;;;60.05;47.83;;;17.30;70.50;;;;;;5014330;27;90539;-66
2022/01/04 04:17:30;;;;;;;60.05;48.17;;;17.30;70.30;;;;;;4995954;28;90400;-66
2022/01/04 04:19:56;;;;;;;59.85;48.15;;;17.30;70.40;;;;;;5013030;27;90741;-66
2022/01/04 04:22:21;;;;;;;60.45;47.75;;;17.30;70.50;;;;;;5012889;27;90428;-66
2022/01/04 04:24:47;;;;;;;60.03;47.80;;;17.30;70.50;;;;;;5017870;27;91541;-67
2022/01/04 04:27:14;;;;;;;60.63;48.15;;;17.30;70.50;;;;;;5014467;27;89885;-66
2022/01/04 04:29:39;;;;;;;60.40;47.92;;;17.20;70.40;;;;;;5015735;27;89658;-66
2022/01/04 04:32:06;;;;;;;60.55;48.08;;;17.30;70.50;;;;;;5014098;27;90070;-66
2022/01/04 04:34:31;;;;;;;59.80;48.05;;;17.30;70.70;;;;;;5015689;27;91081;-66
2022/01/04 04:36:57;;;;;;;60.53;48.20;;;17.30;70.30;;;;;;4997894;27;89220;-66
2022/01/04 04:39:22;;;;;;;59.88;47.95;;;17.30;70.20;;;;;;5018819;27;91474;-66
2022/01/04 04:41:49;;;;;;;61.50;48.05;;;17.30;70.20;;;;;;5015379;27;90109;-66
2022/01/04 04:44:15;;;;;;;59.53;47.92;;;17.30;70.30;;;;;;5003175;27;91582;-66
2022/01/04 04:46:41;;;;;;;59.80;47.95;;;17.30;70.10;;;;;;5018463;27;90445;-66
2022/01/04 04:49:06;;;;;;;60.28;48.10;;;17.30;70.20;;;;;;5021934;27;90095;-66
2022/01/04 04:51:33;;;;;;;60.05;47.95;;;17.20;70.20;;;;;;5003616;27;90815;-66
2022/01/04 04:53:59;;;;;;;59.65;47.92;;;17.30;70.30;;;;;;4999836;27;92696;-66
2022/01/04 04:56:24;;;;;;;60.08;48.03;;;17.30;70.00;;;;;;5014547;27;91767;-66
2022/01/04 04:58:50;;;;;;;59.63;47.88;;;17.30;70.20;;;;;;5014450;27;90376;-66
2022/01/04 05:01:16;;;;;;;60.58;47.85;;;17.20;70.00;;;;;;5015868;27;89090;-67
2022/01/04 05:03:41;;;;;;;59.47;47.83;;;17.20;69.90;;;;;;5009945;27;89915;-67
2022/01/04 05:06:07;;;;;;;60.25;48.15;;;17.20;70.10;;;;;;5001008;27;90035;-66
2022/01/04 05:08:33;;;;;;;60.47;48.25;;;17.20;70.10;;;;;;5015577;27;90692;-66
2022/01/04 05:10:58;;;;;;;59.97;47.83;;;17.20;70.10;;;;;;4991424;27;92545;-66
2022/01/04 05:13:24;;;;;;;60.75;47.92;;;17.20;70.20;;;;;;5017639;27;89545;-66
2022/01/04 05:15:50;;;;;;;59.70;48.10;;;17.20;70.30;;;;;;5013258;27;89758;-66
2022/01/04 05:18:15;;;;;;;59.88;47.90;;;17.20;70.00;;;;;;5000302;28;91707;-66
2022/01/04 05:20:41;;;;;;;60.20;48.17;;;17.20;70.10;;;;;;5015547;27;90758;-66
2022/01/04 05:23:07;;;;;;;60.88;48.03;;;17.20;70.80;;;;;;5010211;27;90248;-67
2022/01/04 05:25:32;;;;;;;59.60;47.85;;;17.20;70.00;;;;;;5013383;27;92148;-66
2022/01/04 05:27:58;;;;;;;60.42;48.10;;;17.20;70.00;;;;;;5023012;27;91686;-66
2022/01/04 05:30:24;;;;;;;59.65;47.95;;;17.20;70.10;;;;;;5019724;27;90295;-67
2022/01/04 05:32:49;;;;;;;60.17;48.13;;;17.20;70.10;;;;;;5024770;27;90818;-66
2022/01/04 05:35:15;;;;;;;59.47;47.92;;;17.20;70.10;;;;;;5009274;27;90171;-66
2022/01/04 05:37:40;;;;;;;59.40;47.85;;;17.20;70.00;;;;;;5017942;27;90250;-66
2022/01/04 05:40:07;;;;;;;59.83;47.90;;;17.20;69.90;;;;;;5026077;27;90072;-66
2022/01/04 05:42:32;;;;;;;59.70;47.95;;;17.20;70.60;;;;;;5015919;27;90231;-66
2022/01/04 05:44:58;;;;;;;59.80;47.92;;;17.20;70.10;;;;;;5020208;27;89494;-66
2022/01/04 05:47:24;;;;;;;60.22;47.67;;;17.20;69.90;;;;;;5019239;27;89795;-66
2022/01/04 05:49:51;;;;;;;59.33;47.80;;;17.20;70.00;;;;;;5017990;27;89712;-66
2022/01/04 05:52:17;;;;;;;59.67;48.08;;;17.20;69.80;;;;;;5018582;27;90653;-66
2022/01/04 05:54:43;;;;;;;60.80;48.00;;;17.10;69.70;;;;;;5016360;27;90795;-66
2022/01/04 05:57:09;;;;;;;60.05;47.80;;;17.20;69.80;;;;;;5001093;27;91050;-66
2022/01/04 05:59:36;;;;;;;59.40;47.65;;;17.20;69.80;;;;;;5017094;27;89571;-66
2022/01/04 06:02:02;;;;;;;60.28;48.08;;;17.10;69.80;;;;;;5018501;27;90872;-66
2022/01/04 06:04:28;;;;;;;59.45;47.80;;;17.10;69.90;;;;;;5013011;27;89871;-66
2022/01/04 06:06:54;;;;;;;59.75;48.10;;;17.10;69.80;;;;;;5020093;27;89624;-66
2022/01/04 06:09:27;;;;;;;60.03;48.25;;;17.10;69.80;;;;;;5015585;27;90073;-66
2022/01/04 06:17:05;;;;;;;59.75;48.10;;;17.10;69.70;;;;;;5015787;27;90578;-66
2022/01/04 06:19:31;;;;;;;60.50;48.05;;;17.10;69.80;;;;;;5016647;27;90574;-66
2022/01/04 06:21:57;;;;;;;59.40;47.95;;;17.10;69.80;;;;;;5017459;27;90814;-66
2022/01/04 06:24:22;;;;;;;59.70;47.83;;;17.20;69.70;;;;;;5020654;27;89848;-66
2022/01/04 06:26:48;;;;;;;59.67;48.03;;;17.10;69.60;;;;;;5016186;27;91187;-66
2022/01/04 06:29:14;;;;;;;59.95;47.95;;;17.10;69.60;;;;;;5021271;27;89436;-66
2022/01/04 06:31:41;;;;;;;60.45;47.83;;;17.10;69.70;;;;;;5020998;27;90251;-66
2022/01/04 06:34:07;;;;;;;59.88;47.95;;;17.10;69.90;;;;;;5018571;27;91443;-66
2022/01/04 06:36:33;;;;;;;58.65;47.47;;;17.10;69.70;;;;;;5022504;27;90253;-66
2022/01/04 06:38:59;;;;;;;59.53;47.90;;;17.10;69.50;;;;;;5001549;27;91119;-66
2022/01/04 06:41:24;;;;;;;59.25;47.88;;;17.10;69.60;;;;;;5018697;27;89646;-66
2022/01/04 06:43:50;;;;;;;59.45;48.03;;;17.10;69.70;;;;;;5011825;27;90403;-66
2022/01/04 06:46:15;;;;;;;59.67;48.05;;;17.10;69.70;;;;;;5021230;27;91272;-66
2022/01/04 06:48:42;;;;;;;59.90;48.15;;;17.10;69.50;;;;;;5000055;27;91034;-66
2022/01/04 06:51:08;;;;;;;60.00;48.13;;;17.10;69.60;;;;;;5013843;27;90777;-65
2022/01/04 06:53:34;;;;;;;59.50;48.05;;;17.10;69.60;;;;;;5020633;27;89719;-67
2022/01/04 06:55:59;;;;;;;60.28;48.17;;;17.10;69.60;;;;;;5017646;27;91558;-66
2022/01/04 06:58:25;;;;;;;61.17;48.17;;;17.10;69.50;;;;;;5019946;27;90922;-66
2022/01/04 07:00:51;;;;;;;61.28;48.20;;;17.10;69.60;;;;;;5016995;27;90160;-66
2022/01/04 07:03:16;;;;;;;59.75;48.20;;;17.10;69.40;;;;;;5018556;27;91022;-67
2022/01/04 07:05:42;;;;;;;60.42;47.95;;;17.10;69.40;;;;;;5018224;27;92031;-66
2022/01/04 07:08:08;;;;;;;59.47;48.05;;;17.10;69.40;;;;;;5012238;27;94102;-66
2022/01/04 07:10:33;;;;;;;60.08;48.05;;;17.10;69.60;;;;;;5007635;27;91693;-66
2022/01/04 07:12:59;;;;;;;59.65;47.92;;;17.10;69.50;;;;;;5013440;27;91198;-66
2022/01/04 07:15:25;;;;;;;59.65;47.97;;;17.10;69.40;;;;;;5013420;27;91494;-66
2022/01/04 07:17:50;;;;;;;60.35;47.85;;;17.00;69.50;;;;;;5017726;27;89753;-66
2022/01/04 07:20:16;;;;;;;59.90;48.22;;;17.10;69.50;;;;;;5013271;27;94288;-66
2022/01/04 07:22:42;;;;;;;59.35;47.80;;;17.10;69.40;;;;;;5016257;27;90307;-66
2022/01/04 07:25:08;;;;;;;59.33;47.75;;;17.10;69.30;;;;;;5010169;27;91122;-66
2022/01/04 07:27:34;;;;;;;59.15;47.85;;;17.10;69.40;;;;;;5015184;27;89644;-67
2022/01/04 07:29:59;;;;;;;59.72;47.95;;;17.10;69.30;;;;;;5015512;27;89923;-66
2022/01/04 07:32:26;;;;;;;59.85;47.85;;;17.10;69.40;;;;;;5017979;27;89744;-66
2022/01/04 07:34:51;;;;;;;58.95;47.58;;;17.10;69.30;;;;;;5012868;27;90869;-66
2022/01/04 07:37:17;;;;;;;59.38;47.85;;;17.10;69.40;;;;;;5010234;27;90362;-66
2022/01/04 07:39:43;;;;;;;60.35;48.03;;;17.10;69.30;;;;;;5013287;27;90081;-66
2022/01/04 07:42:08;;;;;;;59.53;47.95;;;17.10;69.30;;;;;;5019443;27;89933;-66
2022/01/04 07:44:34;;;;;;;59.45;47.83;;;17.10;69.20;;;;;;5013246;27;91635;-67
2022/01/04 07:47:00;;;;;;;60.13;47.92;;;17.10;69.20;;;;;;5016406;27;90391;-66
2022/01/04 07:49:26;;;;;;;59.42;48.10;;;17.10;69.30;;;;;;5015328;27;93153;-66
2022/01/04 07:51:53;;;;;;;59.70;47.90;;;17.10;69.30;;;;;;5013738;27;92971;-66
2022/01/04 07:54:19;;;;;;;60.25;47.80;;;17.10;69.10;;;;;;5016304;27;96746;-66
2022/01/04 07:56:44;;;;;;;60.65;47.85;;;17.10;69.10;;;;;;5013831;27;90154;-67
2022/01/04 07:59:11;;;;;;;59.78;48.15;;;17.00;69.20;;;;;;5010672;27;91411;-67
2022/01/04 08:01:37;;;;;;;59.53;48.05;;;17.10;69.20;;;;;;5015737;27;89784;-67
2022/01/04 08:04:04;;;;;;;59.45;48.15;;;17.00;69.20;;;;;;5017425;27;89846;-66
2022/01/04 08:06:30;;;;;;;61.10;48.42;;;17.00;69.10;;;;;;5016014;27;90005;-66
2022/01/04 08:08:56;;;;;;;59.35;47.80;;;17.00;69.30;;;;;;5019035;27;92806;-66
2022/01/04 08:11:22;;;;;;;59.92;47.83;;;17.00;69.10;;;;;;5015036;27;90101;-66
2022/01/04 08:13:48;;;;;;;59.97;47.85;;;17.00;69.10;;;;;;5012435;27;94576;-66
2022/01/04 08:16:15;;;;;;;61.63;47.85;;;17.00;69.00;;;;;;5017047;27;89816;-66
2022/01/04 08:18:44;;;;;;;59.90;48.15;;;17.00;69.10;;;;;;5013347;27;90240;-66
2022/01/04 08:21:10;;;;;;;59.70;48.05;;;17.00;69.10;;;;;;5015998;27;89605;-66
2022/01/04 08:23:36;;;;;;;59.53;48.17;;;17.00;69.00;;;;;;5020362;27;90647;-67
2022/01/04 08:26:02;;;;;;;59.75;48.33;;;17.00;69.00;;;;;;5012152;27;90302;-66
2022/01/04 08:28:28;;;;;;;60.50;48.38;;;17.00;69.00;;;;;;5011060;27;90236;-66
2022/01/04 08:30:53;;;;;;;59.80;48.25;;;17.00;69.10;;;;;;4997744;27;90371;-66
2022/01/04 08:33:19;;;;;;;60.60;48.45;;;17.00;69.00;;;;;;5013614;27;91515;-66
2022/01/04 08:35:45;;;;;;;59.60;47.95;;;17.00;68.80;;;;;;5016122;27;90709;-66
2022/01/04 08:38:11;;;;;;;59.75;48.05;;;17.00;69.00;;;;;;5012463;27;90288;-66
2022/01/04 08:40:37;;;;;;;60.65;48.42;;;17.00;68.80;;;;;;5014712;27;88825;-66
2022/01/04 08:43:03;;;;;;;59.53;48.15;;;17.00;68.90;;;;;;5007177;27;90533;-66
2022/01/04 08:45:29;;;;;;;60.22;48.38;;;17.00;69.00;;;;;;4999176;28;92727;-66
2022/01/04 08:47:54;;;;;;;60.03;48.00;;;17.00;69.00;;;;;;5011562;27;92043;-66
2022/01/04 08:50:21;;;;;;;60.30;48.22;;;17.00;69.00;;;;;;5007699;27;89872;-67
2022/01/04 08:52:51;;;;;;;60.30;48.45;;;17.00;68.90;;;;;;5019479;27;89952;-66
2022/01/04 08:55:17;;;;;;;59.85;47.95;;;17.00;68.80;;;;;;5009240;27;92859;-67
2022/01/04 08:57:43;;;;;;;59.75;48.15;;;17.00;68.80;;;;;;5011789;27;90890;-66
2022/01/04 09:00:10;;;;;;;59.88;48.33;;;17.00;68.80;;;;;;5015325;27;90090;-66
2022/01/04 09:02:36;;;;;;;59.78;48.03;;;17.00;68.80;;;;;;5016431;27;90519;-66
2022/01/04 09:05:03;;;;;;;59.55;48.10;;;17.00;68.70;;;;;;5022664;27;88810;-66
2022/01/04 09:07:28;;;;;;;60.17;48.10;;;17.00;68.80;;;;;;5011347;27;90265;-66
2022/01/04 09:09:54;;;;;;;61.38;47.83;;;17.00;68.80;;;;;;4997050;27;89731;-67
2022/01/04 09:12:24;;;;;;;60.35;48.25;;;17.00;68.70;;;;;;5012783;27;91531;-66
2022/01/04 09:14:59;;;;;;;59.90;47.85;;;17.00;68.70;;;;;;5015558;27;90872;-66
2022/01/04 09:20:12;;;;;;;59.60;47.80;;;17.00;68.70;;;;;;5006097;27;91556;-66
2022/01/04 09:22:38;;;;;;;59.97;48.13;;;17.00;68.70;;;;;;5008727;27;89804;-66
2022/01/04 09:25:05;;;;;;;59.67;47.78;;;17.00;68.60;;;;;;5015657;27;90712;-67
2022/01/04 09:27:31;;;;;;;59.80;48.05;;;17.00;68.70;;;;;;5005934;27;91382;-65
2022/01/04 09:29:57;;;;;;;60.45;47.92;;;17.00;68.70;;;;;;5022439;27;89661;-67
2022/01/04 09:32:23;;;;;;;61.22;47.92;;;17.00;68.70;;;;;;5021747;27;89949;-68
2022/01/04 09:34:48;;;;;;;60.08;47.83;;;17.00;68.60;;;;;;5011736;27;89617;-68
2022/01/04 09:37:14;;;;;;;61.85;48.15;;;17.10;68.30;;;;;;5020966;27;94982;-68
2022/01/04 09:39:40;;;;;;;60.35;48.08;;;17.00;68.20;;;;;;5008830;27;97136;-68
2022/01/04 09:42:09;;;;;;;60.38;48.10;;;17.10;68.40;;;;;;5009488;27;90253;-68
2022/01/04 09:44:36;;;;;;;61.05;48.42;;;17.10;68.40;;;;;;5009391;27;90450;-68
2022/01/04 09:47:02;;;;;;;59.60;47.83;;;17.10;68.20;;;;;;5009265;27;91095;-65
2022/01/04 09:49:29;;;;;;;61.90;48.35;;;17.10;68.00;;;;;;4983518;27;90302;-66
2022/01/04 09:51:56;;;;;;;60.40;48.17;;;17.10;68.40;;;;;;5008482;27;90775;-66
2022/01/04 09:54:27;;;;;;;61.15;48.08;;;17.10;68.40;;;;;;5011844;27;90608;-67
2022/01/04 09:56:53;;;;;;;59.67;47.85;;;17.10;68.30;;;;;;5019250;27;89762;-65
2022/01/04 09:59:20;;;;;;;60.08;48.10;;;17.10;68.10;;;;;;5009710;27;89877;-66
2022/01/04 10:02:00;;;;;;;59.80;48.20;;;17.10;68.10;;;;;;5014628;27;92383;-65
2022/01/04 10:04:26;;;;;;;61.25;48.35;;;17.10;68.10;;;;;;5014818;27;91228;-66
2022/01/04 10:07:07;;;;;;;60.40;48.05;;;17.10;67.80;;;;;;5011148;27;91317;-67
2022/01/04 10:09:42;;;;;;;59.97;48.15;;;17.20;67.80;;;;;;4993988;27;90055;-65
2022/01/04 10:12:10;;;;;;;61.58;48.20;;;17.20;67.80;;;;;;4983680;27;89870;-64
2022/01/04 10:14:40;;;;;;;63.85;47.88;;;17.20;68.40;;;;;;5008211;27;92106;-65
2022/01/04 10:17:09;;;;;;;63.65;48.15;;;17.20;68.20;;;;;;5007556;27;95023;-64
2022/01/04 10:19:47;;;;;;;64.43;48.15;;;17.20;68.50;;;;;;5017047;27;88941;-67
2022/01/04 10:22:18;;;;;;;60.67;48.17;;;17.30;68.70;;;;;;5002083;27;89931;-64
2022/01/04 10:24:46;;;;;;;65.23;48.50;;;17.20;68.70;;;;;;5015167;27;90515;-65
2022/01/04 10:27:31;;;;;;;62.90;48.00;;;17.30;68.80;;;;;;5021724;27;90809;-65
2022/01/04 10:30:23;;;;;;;60.60;48.20;;;17.30;68.70;;;;;;5017854;27;90225;-65
2022/01/04 10:33:06;;;;;;;66.57;48.35;;;17.30;69.10;;;;;;5019376;27;92487;-65
2022/01/04 10:35:37;;;;;;;63.75;48.25;;;17.30;69.10;;;;;;5005246;27;90172;-65
2022/01/04 10:38:19;;;;;;;;;;;17.40;69.10;;;;;;5012029;27;90569;-65
2022/01/04 10:40:52;;;;;;;62.67;48.38;;;17.40;69.30;;;;;;5010828;27;91521;-65
2022/01/04 10:43:20;;;;;;;65.07;48.20;;;17.40;69.20;;;;;;5006079;27;90296;-65
2022/01/04 10:45:48;;;;;;;64.60;48.65;;;17.40;69.40;;;;;;5010777;27;89510;-63
2022/01/04 10:48:28;;;;;;;61.33;48.45;;;17.40;69.10;;;;;;5005324;27;89485;-65
2022/01/04 10:50:58;;;;;;;66.03;48.25;;;17.40;69.80;;;;;;5006668;27;90747;-65
2022/01/04 10:53:30;;;;;;;67.18;48.53;;;17.40;68.70;;;;;;5006606;27;95870;-65
2022/01/04 10:56:05;;;;;;;61.03;48.42;;;17.50;68.90;;;;;;4998959;27;91327;-66
2022/01/04 10:58:43;;;;;;;64.82;48.55;;;17.50;68.60;;;;;;5008975;27;90969;-65
2022/01/04 11:01:11;;;;;;;66.30;48.47;;;17.40;68.50;;;;;;5007514;27;90129;-65
2022/01/04 11:03:54;;;;;;;66.10;48.55;;;17.40;68.30;;;;;;5009590;27;89562;-66
2022/01/04 11:06:33;;;;;;;68.75;48.35;;;17.40;68.20;;;;;;5002717;27;90266;-65
2022/01/04 11:08:59;;;;;;;61.60;48.05;;;17.40;68.00;;;;;;5005455;27;90204;-66
2022/01/04 11:11:25;;;;;;;62.75;48.38;;;17.40;68.00;;;;;;4999898;27;89165;-65
2022/01/04 11:13:52;;;;;;;64.18;48.03;;;17.40;67.90;;;;;;5008641;27;89921;-65
2022/01/04 11:16:22;;;;;;;62.13;48.25;;;17.40;67.80;;;;;;5004729;27;90748;-65
2022/01/04 11:18:52;;;;;;;68.63;48.40;;;17.40;67.70;;;;;;5015487;27;90769;-65
2022/01/04 11:21:31;;;;;;;72.93;48.67;;;17.40;67.60;;;;;;4995233;27;91359;-65
2022/01/04 11:23:58;;;;;;;66.00;48.42;;;17.40;67.60;;;;;;5004011;27;90012;-65
2022/01/04 11:26:24;;;;;;;62.78;48.05;;;17.50;67.60;;;;;;5013279;27;90824;-65
2022/01/04 11:28:52;;;;;;;63.35;48.47;;;17.50;67.50;;;;;;5018273;27;89740;-65
2022/01/04 11:31:44;;;;;;;63.85;48.50;;;17.40;67.40;;;;;;5016738;27;89428;-65
2022/01/04 11:34:24;;;;;;;62.72;48.50;;;17.40;67.30;;;;;;5009512;27;92038;-65
2022/01/04 11:36:51;;;;;;;66.53;48.90;;;17.40;67.40;;;;;;5020960;27;89767;-65
2022/01/04 11:39:27;;;;;;;64.75;48.75;;;17.50;67.40;;;;;;5012599;27;90252;-65
2022/01/04 11:41:55;;;;;;;65.55;48.55;;;17.50;67.40;;;;;;5001472;27;89882;-65
2022/01/04 11:44:23;;;;;;;62.33;48.85;;;17.50;67.30;;;;;;5014596;27;90805;-65
2022/01/04 11:47:10;;;;;;;65.25;48.85;;;17.40;67.10;;;;;;5012470;27;90863;-65
2022/01/04 11:49:38;;;;;;;64.78;48.75;;;17.50;67.20;;;;;;5020370;27;89704;-65
2022/01/04 11:52:08;;;;;;;63.30;48.55;;;17.50;67.90;;;;;;5016088;27;89600;-65
2022/01/04 11:54:34;;;;;;;66.85;48.65;;;17.40;67.10;;;;;;4997543;27;92079;-65
2022/01/04 11:57:02;;;;;;;67.38;48.55;;;17.40;67.00;;;;;;5016240;27;91010;-65
2022/01/04 11:59:36;;;;;;;64.05;49.05;;;17.40;67.20;;;;;;5014640;27;90428;-66
2022/01/04 12:02:28;;;;;;;66.20;48.90;;;17.40;67.10;;;;;;5017515;27;90829;-65
2022/01/04 12:04:58;;;;;;;62.10;48.65;;;17.40;67.10;;;;;;5010133;27;89963;-65
2022/01/04 12:07:39;;;;;;;61.38;48.60;;;17.40;67.10;;;;;;5013439;27;90471;-65
2022/01/04 12:10:20;;;;;;;61.60;48.75;;;17.40;67.10;;;;;;5012384;27;90575;-65
2022/01/04 12:13:00;;;;;;;63.03;48.85;;;17.40;67.10;;;;;;5001365;27;89876;-65
2022/01/04 12:15:35;;;;;;;68.03;49.00;;;17.40;67.10;;;;;;5007699;27;89519;-64
2022/01/04 12:18:23;;;;;;;66.95;49.15;;;17.40;67.00;;;;;;5013549;27;90519;-64
2022/01/04 12:21:00;;;;;;;61.58;48.92;;;17.40;66.90;;;;;;5014034;27;89716;-64
2022/01/04 12:23:26;;;;;;;64.22;49.13;;;17.40;66.90;;;;;;5015448;27;89487;-65
2022/01/04 12:26:12;;;;;;;63.28;49.08;;;17.40;67.00;;;;;;5007680;27;90174;-65
2022/01/04 12:28:41;;;;;;;63.47;49.28;;;17.50;67.00;;;;;;5014231;27;89207;-64
2022/01/04 12:31:24;;;;;;;66.28;49.42;;;17.40;66.90;;;;;;5012744;27;90300;-65
2022/01/04 12:33:51;;;;;;;64.22;49.45;;;17.50;66.90;;;;;;5006591;27;90866;-67
2022/01/04 12:36:30;;;;;;;63.20;49.17;;;17.50;66.80;;;;;;5012552;27;91158;-64
2022/01/04 12:38:58;;;;;;;63.78;49.45;;;17.50;66.80;;;;;;5003010;27;90268;-64
2022/01/04 12:41:24;;;;;;;66.25;49.55;;;17.50;66.80;;;;;;5008627;27;91006;-64